Bora Bora, Bora Bora Airport (NTTB)

NameBora Bora Airport
CityBora Bora
CountryFrench Polynesia
ICAONTTB
IATABOB
Altitude3 m
CoordinatesGoogle Map
Live Air TrafficLiveATC.net
METARNTTB 121900Z AUTO 04005KT 9999 NCD 30/23 Q1009
2017-01-12 19:00:00 Wind: North-Northeast (40°) 2.57 m/s - Visibility: > 10000 m - Temperature: 30 °C - Dew point: 23 °C - Humidity: 66.1% - Pressure: 1009 hPa
Statistics

The table below shows the detailed information of all flights to/from Bora Bora, Bora Bora Airport (NTTB).

Ident Aircraft Coming fromFrom Going toTo Owner nameOwnerDate
F-ORVU - AT76 - Air Tahiti VT463DT ATR ATR-72-600 AT76 , French Polynesia (NTAA) NTAA
15 km
Bora Bora, French Polynesia (NTTB) NTTB
266 km
Air Tahiti Air Tahiti Sat, 15 Sep 2018 03:34:12 +0000 15/9/2018 3:34 am
F-ORVO - AT76 - Air Tahiti VT555DS ATR ATR-72-600 AT76 Bora Bora, French Polynesia (NTTB) NTTB
174 km
Tikehau, French Polynesia (NTGC) NTGC
231 km
Snc Tavake Bail Snc Tavake Bail Thu, 13 Sep 2018 21:22:05 +0000 13/9/2018 9:22 pm
F-ORVV - AT76 - Air Tahiti VT245JZ ATR ATR-72-600 AT76 Moorea, French Polynesia (NTTM) NTTM
27 km
Bora Bora, French Polynesia (NTTB) NTTB
233 km
Air Tahiti Air Tahiti Sun, 09 Sep 2018 03:40:47 +0000 9/9/2018 3:40 am
F-ORVN - AT76 - Air Tahiti VT452BP ATR ATR-72-600 AT76 , French Polynesia (NTAA) NTAA
214 km
Bora Bora, French Polynesia (NTTB) NTTB
266 km
Air Tahiti Air Tahiti Wed, 05 Sep 2018 23:09:15 +0000 5/9/2018 11:09 pm